createdAt,value
2018-03-15T00:00:23.538Z,0.00
2018-03-15T00:01:23.403Z,0.00
2018-03-15T00:02:23.320Z,0.00
2018-03-15T00:03:23.238Z,0.00
2018-03-15T00:04:23.155Z,0.00
2018-03-15T00:05:23.073Z,0.00
2018-03-15T00:06:23.042Z,0.00
2018-03-15T00:07:22.970Z,0.00
2018-03-15T00:08:22.822Z,0.00
2018-03-15T00:09:22.739Z,0.00
2018-03-15T00:10:22.677Z,0.00
2018-03-15T00:11:22.634Z,0.00
2018-03-15T00:12:22.547Z,0.00
2018-03-15T00:13:22.409Z,0.00
2018-03-15T00:14:22.322Z,0.00
2018-03-15T00:15:22.240Z,0.00
2018-03-15T00:16:22.222Z,0.00
2018-03-15T00:17:22.070Z,0.00
2018-03-15T00:18:21.987Z,0.00
2018-03-15T00:19:21.904Z,0.00
2018-03-15T00:20:21.822Z,0.00
2018-03-15T00:21:21.738Z,0.00
2018-03-15T00:22:21.653Z,0.00
2018-03-15T00:23:21.569Z,0.00
2018-03-15T00:24:21.488Z,0.00
2018-03-15T00:25:21.431Z,0.00
2018-03-15T00:26:21.324Z,0.00
2018-03-15T00:27:21.237Z,0.00
2018-03-15T00:28:21.152Z,0.00
2018-03-15T00:29:21.105Z,0.00
2018-03-15T00:30:20.990Z,0.00
2018-03-15T00:31:20.902Z,0.00
2018-03-15T00:32:20.822Z,0.00
2018-03-15T00:33:20.734Z,0.00
2018-03-15T00:34:20.651Z,0.00
2018-03-15T00:35:20.565Z,0.00
2018-03-15T00:36:20.487Z,0.00
2018-03-15T00:37:20.398Z,0.00
2018-03-15T00:38:20.318Z,0.00
2018-03-15T00:39:20.233Z,0.00
2018-03-15T00:40:20.149Z,0.00
2018-03-15T00:41:20.068Z,0.00
2018-03-15T00:42:19.984Z,0.00
2018-03-15T00:43:19.897Z,0.00
2018-03-15T00:44:19.811Z,0.00
2018-03-15T00:45:19.727Z,0.00
2018-03-15T00:46:19.648Z,0.00
2018-03-15T00:47:19.564Z,0.00
2018-03-15T00:48:19.481Z,0.00
2018-03-15T00:49:19.393Z,0.00
2018-03-15T00:50:19.313Z,0.00
2018-03-15T00:51:19.229Z,0.00
2018-03-15T00:52:19.143Z,0.00
2018-03-15T00:53:19.059Z,0.00
2018-03-15T00:54:18.975Z,0.00
2018-03-15T00:55:18.894Z,0.00
2018-03-15T00:56:18.810Z,0.00
2018-03-15T00:57:18.735Z,0.00
2018-03-15T00:58:18.640Z,0.00
2018-03-15T00:59:18.556Z,0.00
2018-03-15T01:00:18.475Z,0.00
2018-03-15T01:01:18.401Z,0.00
2018-03-15T01:02:18.303Z,0.00
2018-03-15T01:03:18.221Z,0.00
2018-03-15T01:04:18.137Z,0.00
2018-03-15T01:05:18.058Z,0.00
2018-03-15T01:06:17.968Z,0.00
2018-03-15T01:07:17.887Z,0.00
2018-03-15T01:08:17.801Z,0.00
2018-03-15T01:09:17.718Z,0.00
2018-03-15T01:10:17.636Z,0.00
2018-03-15T01:11:17.567Z,0.00
2018-03-15T01:12:17.467Z,0.00
2018-03-15T01:13:17.381Z,0.00
2018-03-15T01:14:17.313Z,0.00
2018-03-15T01:15:17.210Z,0.00
2018-03-15T01:16:17.127Z,0.00
2018-03-15T01:17:17.041Z,0.00
2018-03-15T01:18:16.961Z,0.00
2018-03-15T01:19:16.876Z,0.00
2018-03-15T01:20:16.793Z,0.00
2018-03-15T01:21:16.705Z,0.00
2018-03-15T01:22:16.621Z,0.00
2018-03-15T01:23:16.542Z,0.00
2018-03-15T01:24:16.455Z,0.00
2018-03-15T01:25:16.368Z,0.00
2018-03-15T01:26:16.284Z,0.00
2018-03-15T01:27:16.201Z,0.00
2018-03-15T01:28:16.117Z,0.00
2018-03-15T01:29:16.033Z,0.00
2018-03-15T01:30:15.949Z,0.00
2018-03-15T01:31:15.864Z,0.00
2018-03-15T01:32:15.780Z,0.00
2018-03-15T01:33:15.697Z,0.00
2018-03-15T01:34:15.611Z,0.00
2018-03-15T01:35:15.528Z,0.00
2018-03-15T01:36:15.443Z,0.00
2018-03-15T01:37:15.357Z,0.00
2018-03-15T01:38:15.274Z,0.00
2018-03-15T01:39:15.189Z,0.00
2018-03-15T01:40:15.109Z,0.00
2018-03-15T01:41:15.041Z,0.00
2018-03-15T01:42:14.936Z,0.00
2018-03-15T01:43:14.853Z,0.00
2018-03-15T01:44:14.767Z,0.00
2018-03-15T01:45:14.687Z,0.00
2018-03-15T01:46:14.598Z,0.00
2018-03-15T01:47:14.515Z,0.00
2018-03-15T01:48:14.429Z,0.00
2018-03-15T01:49:14.344Z,0.00
2018-03-15T01:50:14.261Z,0.00
2018-03-15T01:51:14.177Z,0.00
2018-03-15T01:52:14.098Z,0.00
2018-03-15T01:53:14.007Z,0.00
2018-03-15T01:54:13.924Z,0.00
2018-03-15T01:55:13.840Z,0.00
2018-03-15T01:56:13.754Z,0.00
2018-03-15T01:57:13.666Z,0.00
2018-03-15T01:58:13.587Z,0.00
2018-03-15T01:59:13.502Z,0.00
2018-03-15T02:00:13.418Z,0.00
2018-03-15T02:01:13.331Z,0.00
2018-03-15T02:02:13.245Z,0.00
2018-03-15T02:03:13.163Z,0.00
2018-03-15T02:04:13.079Z,0.00
2018-03-15T02:05:13.014Z,0.00
2018-03-15T02:06:12.907Z,0.00
2018-03-15T02:07:12.823Z,0.00
2018-03-15T02:08:12.738Z,0.00
2018-03-15T02:09:12.667Z,0.00
2018-03-15T02:10:12.571Z,0.00
2018-03-15T02:11:12.497Z,0.00
2018-03-15T02:12:12.405Z,0.00
2018-03-15T02:13:12.316Z,0.00
2018-03-15T02:14:12.229Z,0.00
2018-03-15T02:15:12.146Z,0.00
2018-03-15T02:16:12.061Z,0.00
2018-03-15T02:17:11.977Z,0.00
2018-03-15T02:18:11.893Z,0.00
2018-03-15T02:19:11.815Z,0.00
2018-03-15T02:20:11.725Z,0.00
2018-03-15T02:21:11.639Z,0.00
2018-03-15T02:22:11.556Z,0.00
2018-03-15T02:23:11.470Z,0.00
2018-03-15T02:24:11.385Z,0.00
2018-03-15T02:25:11.301Z,0.00
2018-03-15T02:26:11.216Z,0.00
2018-03-15T02:27:11.130Z,0.00
2018-03-15T02:28:11.046Z,0.00
2018-03-15T02:29:10.960Z,0.00
2018-03-15T02:30:10.880Z,0.00
2018-03-15T02:31:10.792Z,0.00
2018-03-15T02:32:10.709Z,0.00
2018-03-15T02:33:10.622Z,0.00
2018-03-15T02:34:10.542Z,0.00
2018-03-15T02:35:10.452Z,0.00
2018-03-15T02:36:10.369Z,0.00
2018-03-15T02:37:10.279Z,0.00
2018-03-15T02:38:10.202Z,0.00
2018-03-15T02:39:10.113Z,0.00
2018-03-15T02:40:10.030Z,0.00
2018-03-15T02:41:09.942Z,0.00
2018-03-15T02:42:09.857Z,0.00
2018-03-15T02:43:09.774Z,0.00
2018-03-15T02:44:09.689Z,0.00
2018-03-15T02:45:09.602Z,0.00
2018-03-15T02:46:09.519Z,0.00
2018-03-15T02:47:09.435Z,0.00
2018-03-15T02:48:09.350Z,0.00
2018-03-15T02:49:09.263Z,0.00
2018-03-15T02:50:09.180Z,0.00
2018-03-15T02:51:09.096Z,0.00
2018-03-15T02:52:09.013Z,0.00
2018-03-15T02:53:08.928Z,0.00
2018-03-15T02:54:08.845Z,0.00
2018-03-15T02:55:08.754Z,0.00
2018-03-15T02:56:08.668Z,0.00
2018-03-15T02:57:08.584Z,0.00
2018-03-15T02:58:08.498Z,0.00
2018-03-15T02:59:08.419Z,0.00
2018-03-15T03:00:08.328Z,0.00
2018-03-15T03:01:08.244Z,0.00
2018-03-15T03:02:08.160Z,0.00
2018-03-15T03:03:08.132Z,0.00
2018-03-15T03:04:07.987Z,0.00
2018-03-15T03:05:07.912Z,0.00
2018-03-15T03:06:07.816Z,0.00
2018-03-15T03:07:07.731Z,0.00
2018-03-15T03:08:07.649Z,0.00
2018-03-15T03:09:07.563Z,0.00
2018-03-15T03:10:07.478Z,0.00
2018-03-15T03:11:07.394Z,0.00
2018-03-15T03:12:07.307Z,0.00
2018-03-15T03:13:07.221Z,0.00
2018-03-15T03:14:07.135Z,0.00
2018-03-15T03:15:07.051Z,0.00
2018-03-15T03:16:06.966Z,0.00
2018-03-15T03:17:06.885Z,0.00
2018-03-15T03:18:06.795Z,0.00
2018-03-15T03:19:06.716Z,0.00
2018-03-15T03:20:06.628Z,0.00
2018-03-15T03:21:06.541Z,0.00
2018-03-15T03:22:06.458Z,0.00
2018-03-15T03:23:06.370Z,0.00
2018-03-15T03:24:06.284Z,0.00
2018-03-15T03:25:06.202Z,0.00
2018-03-15T03:26:06.115Z,0.00
2018-03-15T03:27:06.032Z,0.00
2018-03-15T03:28:05.946Z,0.00
2018-03-15T03:29:05.860Z,0.00
2018-03-15T03:30:05.781Z,0.00
2018-03-15T03:31:05.693Z,0.00
2018-03-15T03:32:05.603Z,0.00
2018-03-15T03:33:05.521Z,0.00
2018-03-15T03:34:05.434Z,0.00
2018-03-15T03:35:05.348Z,0.00
2018-03-15T03:36:05.281Z,0.00
2018-03-15T03:37:05.178Z,0.00
2018-03-15T03:38:05.094Z,0.00
2018-03-15T03:39:05.008Z,0.00
2018-03-15T03:40:04.926Z,0.00
2018-03-15T03:41:04.837Z,0.00
2018-03-15T03:42:04.752Z,0.00
2018-03-15T03:43:04.667Z,0.00
2018-03-15T03:44:04.586Z,0.00
2018-03-15T03:45:04.496Z,0.00
2018-03-15T03:46:04.410Z,0.00
2018-03-15T03:47:04.326Z,0.00
2018-03-15T03:48:04.241Z,0.00
2018-03-15T03:49:04.159Z,0.00
2018-03-15T03:50:04.070Z,0.00
2018-03-15T03:51:03.985Z,0.00
2018-03-15T03:52:03.900Z,0.00
2018-03-15T03:53:03.814Z,0.00
2018-03-15T03:54:03.728Z,0.00
2018-03-15T03:55:03.646Z,0.00
2018-03-15T03:56:03.561Z,0.00
2018-03-15T03:57:03.471Z,0.00
2018-03-15T03:58:03.390Z,0.00
2018-03-15T03:59:03.303Z,0.00
2018-03-15T04:00:03.216Z,0.00
2018-03-15T04:01:03.133Z,0.00
2018-03-15T04:02:03.077Z,0.00
2018-03-15T04:03:02.980Z,0.00
2018-03-15T04:04:02.876Z,0.00
2018-03-15T04:05:02.790Z,0.00
2018-03-15T04:06:02.705Z,0.00
2018-03-15T04:07:02.619Z,0.00
2018-03-15T04:08:02.536Z,0.00
2018-03-15T04:09:02.452Z,0.00
2018-03-15T04:10:02.362Z,0.00
2018-03-15T04:11:02.280Z,0.00
2018-03-15T04:12:02.194Z,0.00
2018-03-15T04:13:02.106Z,0.00
2018-03-15T04:14:02.020Z,0.00
2018-03-15T04:15:01.935Z,0.00
2018-03-15T04:16:01.851Z,0.00
2018-03-15T04:17:01.764Z,0.00
2018-03-15T04:18:01.678Z,0.00
2018-03-15T04:19:01.593Z,0.00
2018-03-15T04:20:01.512Z,0.00
2018-03-15T04:21:01.430Z,0.00
2018-03-15T04:22:01.337Z,0.00
2018-03-15T04:23:01.255Z,0.00
2018-03-15T04:24:01.166Z,0.00
2018-03-15T04:25:01.081Z,0.00
2018-03-15T04:26:00.993Z,0.00
2018-03-15T04:27:00.910Z,0.00
2018-03-15T04:28:00.831Z,0.00
2018-03-15T04:29:00.738Z,0.00
2018-03-15T04:30:00.652Z,0.00
2018-03-15T04:31:00.574Z,0.00
2018-03-15T04:32:00.482Z,0.00
2018-03-15T04:33:00.402Z,0.00
2018-03-15T04:34:00.313Z,0.00
2018-03-15T04:35:00.225Z,0.00
2018-03-15T04:36:00.147Z,0.00
2018-03-15T04:37:00.056Z,0.00
2018-03-15T04:37:59.970Z,0.00
2018-03-15T04:38:59.885Z,0.00
2018-03-15T04:39:59.798Z,0.00
2018-03-15T04:40:59.710Z,0.00
2018-03-15T04:41:59.626Z,0.00
2018-03-15T04:42:59.540Z,0.00
2018-03-15T04:43:59.459Z,0.00
2018-03-15T04:44:59.367Z,0.00
2018-03-15T04:45:59.285Z,0.00
2018-03-15T04:46:59.197Z,0.00
2018-03-15T04:47:59.110Z,0.00
2018-03-15T04:48:59.031Z,0.00
2018-03-15T04:49:58.940Z,0.00
2018-03-15T04:50:58.854Z,0.00
2018-03-15T04:51:58.770Z,0.00
2018-03-15T04:52:58.688Z,0.00
2018-03-15T04:53:58.599Z,0.00
2018-03-15T04:54:58.515Z,0.00
2018-03-15T04:55:58.427Z,0.00
2018-03-15T04:56:58.343Z,0.00
2018-03-15T04:57:58.254Z,0.00
2018-03-15T04:58:58.193Z,0.00
2018-03-15T04:59:58.085Z,0.00
2018-03-15T05:00:57.997Z,0.00
2018-03-15T05:01:57.911Z,0.00
2018-03-15T05:02:57.825Z,0.00
2018-03-15T05:03:57.741Z,0.00
2018-03-15T05:04:57.653Z,0.00
2018-03-15T05:05:58.077Z,0.00
2018-03-15T05:06:57.485Z,0.00
2018-03-15T05:07:57.398Z,0.00
2018-03-15T05:08:57.311Z,0.00
2018-03-15T05:09:57.225Z,0.00
2018-03-15T05:10:57.139Z,0.00
2018-03-15T05:11:57.057Z,0.00
2018-03-15T05:12:56.970Z,0.00
2018-03-15T05:13:56.884Z,0.00
2018-03-15T05:14:56.803Z,0.00
2018-03-15T05:15:56.711Z,0.00
2018-03-15T05:16:56.622Z,0.00
2018-03-15T05:17:56.539Z,0.00
2018-03-15T05:18:56.452Z,0.00
2018-03-15T05:19:56.366Z,0.00
2018-03-15T05:20:56.284Z,0.00
2018-03-15T05:21:56.196Z,0.00
2018-03-15T05:22:56.110Z,5.63
2018-03-15T05:23:56.023Z,5.63
2018-03-15T05:24:55.938Z,5.63
2018-03-15T05:25:55.850Z,5.63
2018-03-15T05:26:55.770Z,5.63
2018-03-15T05:27:55.681Z,5.63
2018-03-15T05:28:55.593Z,5.63
2018-03-15T05:29:55.509Z,11.25
2018-03-15T05:30:55.422Z,11.25
2018-03-15T05:31:55.339Z,11.25
2018-03-15T05:32:55.250Z,11.25
2018-03-15T05:33:55.165Z,11.25
2018-03-15T05:34:55.090Z,11.25
2018-03-15T05:35:54.993Z,16.88
2018-03-15T05:36:54.907Z,16.88
2018-03-15T05:37:54.819Z,16.88
2018-03-15T05:38:54.733Z,16.88
2018-03-15T05:39:54.648Z,16.88
2018-03-15T05:40:54.567Z,22.50
2018-03-15T05:41:54.477Z,22.50
2018-03-15T05:42:54.390Z,22.50
2018-03-15T05:43:54.307Z,22.50
2018-03-15T05:44:54.269Z,28.13
2018-03-15T05:45:54.133Z,28.13
2018-03-15T05:46:54.047Z,28.13
2018-03-15T05:47:53.963Z,28.13
2018-03-15T05:48:53.874Z,28.13
2018-03-15T05:49:53.788Z,33.75
2018-03-15T05:50:53.703Z,33.75
2018-03-15T05:51:53.617Z,33.75
2018-03-15T05:52:53.530Z,33.75
2018-03-15T05:53:53.444Z,39.38
2018-03-15T05:54:53.376Z,39.38
2018-03-15T05:55:53.304Z,39.38
2018-03-15T05:56:53.186Z,39.38
2018-03-15T05:57:53.152Z,45.00
2018-03-15T05:58:53.015Z,45.00
2018-03-15T05:59:52.929Z,45.00
2018-03-15T06:00:52.842Z,50.63
2018-03-15T06:01:52.758Z,50.63
2018-03-15T06:02:52.685Z,50.63
2018-03-15T06:03:52.584Z,50.63
2018-03-15T06:04:52.500Z,56.25
2018-03-15T06:05:52.414Z,56.25
2018-03-15T06:06:52.327Z,56.25
2018-03-15T06:07:52.244Z,56.25
2018-03-15T06:08:52.164Z,61.88
2018-03-15T06:09:52.069Z,61.88
2018-03-15T06:10:51.985Z,61.88
2018-03-15T06:11:51.899Z,67.50
2018-03-15T06:12:51.812Z,67.50
2018-03-15T06:13:51.726Z,67.50
2018-03-15T06:14:51.644Z,67.50
2018-03-15T06:15:51.554Z,67.50
2018-03-15T06:16:51.469Z,73.13
2018-03-15T06:17:51.382Z,73.13
2018-03-15T06:18:51.296Z,73.13
2018-03-15T06:19:51.312Z,73.13
2018-03-15T06:20:51.127Z,73.13
2018-03-15T06:21:51.051Z,73.13
2018-03-15T06:22:50.958Z,73.13
2018-03-15T06:23:50.869Z,78.75
2018-03-15T06:24:50.786Z,78.75
2018-03-15T06:25:50.696Z,78.75
2018-03-15T06:26:50.613Z,78.75
2018-03-15T06:27:50.531Z,84.38
2018-03-15T06:28:50.468Z,84.38
2018-03-15T06:29:50.356Z,84.38
2018-03-15T06:30:50.270Z,84.38
2018-03-15T06:31:50.189Z,84.38
2018-03-15T06:32:50.104Z,90.00
2018-03-15T06:33:50.014Z,90.00
2018-03-15T06:34:49.928Z,90.00
2018-03-15T06:35:49.844Z,90.00
2018-03-15T06:36:49.760Z,90.00
2018-03-15T06:37:49.671Z,95.63
2018-03-15T06:38:49.588Z,95.63
2018-03-15T06:39:49.506Z,95.63
2018-03-15T06:40:49.465Z,95.63
2018-03-15T06:41:49.385Z,95.63
2018-03-15T06:42:49.245Z,101.25
2018-03-15T06:43:49.160Z,101.25
2018-03-15T06:44:49.083Z,101.25
2018-03-15T06:45:49.009Z,101.25
2018-03-15T06:46:48.905Z,101.25
2018-03-15T06:47:48.826Z,101.25
2018-03-15T06:48:48.740Z,106.88
2018-03-15T06:49:48.655Z,106.88
2018-03-15T06:50:48.563Z,106.88
2018-03-15T06:51:48.486Z,106.88
2018-03-15T06:52:48.392Z,106.88
2018-03-15T06:53:48.313Z,106.88
2018-03-15T06:54:48.230Z,106.88
2018-03-15T06:55:48.139Z,106.88
2018-03-15T06:56:48.052Z,112.50
2018-03-15T06:57:47.968Z,112.50
2018-03-15T06:58:47.884Z,112.50
2018-03-15T06:59:47.803Z,112.50
2018-03-15T07:00:47.714Z,112.50
2018-03-15T07:01:47.632Z,112.50
2018-03-15T07:02:47.544Z,112.50
2018-03-15T07:03:47.496Z,112.50
2018-03-15T07:04:47.378Z,112.50
2018-03-15T07:05:47.289Z,112.50
2018-03-15T07:06:47.205Z,118.13
2018-03-15T07:07:47.122Z,118.13
2018-03-15T07:08:47.036Z,118.13
2018-03-15T07:09:46.952Z,118.13
2018-03-15T07:10:46.869Z,118.13
2018-03-15T07:11:46.782Z,118.13
2018-03-15T07:12:46.696Z,118.13
2018-03-15T07:13:46.612Z,123.75
2018-03-15T07:14:46.527Z,123.75
2018-03-15T07:15:46.445Z,123.75
2018-03-15T07:16:46.357Z,123.75
2018-03-15T07:17:46.274Z,123.75
2018-03-15T07:18:46.190Z,123.75
2018-03-15T07:19:46.115Z,123.75
2018-03-15T07:20:46.021Z,123.75
2018-03-15T07:21:45.936Z,123.75
2018-03-15T07:22:45.900Z,123.75
2018-03-15T07:23:45.769Z,129.38
2018-03-15T07:24:45.682Z,129.38
2018-03-15T07:25:45.598Z,129.38
2018-03-15T07:26:45.516Z,129.38
2018-03-15T07:27:45.429Z,129.38
2018-03-15T07:28:45.346Z,129.38
2018-03-15T07:29:45.265Z,129.38
2018-03-15T07:30:45.177Z,129.38
2018-03-15T07:31:45.093Z,129.38
2018-03-15T07:32:45.007Z,129.38
2018-03-15T07:33:44.925Z,129.38
2018-03-15T07:34:44.887Z,135.00
2018-03-15T07:35:44.754Z,135.00
2018-03-15T07:36:44.673Z,135.00
2018-03-15T07:37:44.585Z,135.00
2018-03-15T07:38:44.502Z,135.00
2018-03-15T07:39:44.417Z,135.00
2018-03-15T07:40:44.333Z,135.00
2018-03-15T07:41:44.249Z,135.00
2018-03-15T07:42:44.166Z,135.00
2018-03-15T07:43:44.085Z,129.38
2018-03-15T07:44:43.997Z,135.00
2018-03-15T07:45:43.917Z,135.00
2018-03-15T07:46:43.828Z,135.00
2018-03-15T07:47:43.745Z,135.00
2018-03-15T07:48:43.660Z,140.63
2018-03-15T07:49:43.577Z,140.63
2018-03-15T07:50:43.526Z,140.63
2018-03-15T07:51:43.411Z,140.63
2018-03-15T07:52:43.338Z,140.63
2018-03-15T07:53:43.249Z,135.00
2018-03-15T07:54:43.163Z,135.00
2018-03-15T07:55:43.078Z,135.00
2018-03-15T07:56:42.987Z,135.00
2018-03-15T07:57:42.906Z,140.63
2018-03-15T07:58:42.822Z,135.00
2018-03-15T07:59:42.741Z,140.63
2018-03-15T08:02:25.229Z,140.63
2018-03-15T08:03:25.096Z,140.63
2018-03-15T08:04:25.012Z,140.63
2018-03-15T08:05:24.931Z,140.63
2018-03-15T08:06:24.843Z,140.63
2018-03-15T08:07:24.787Z,140.63
2018-03-15T08:08:24.677Z,140.63
2018-03-15T08:09:24.600Z,140.63
2018-03-15T08:10:24.511Z,140.63
2018-03-15T08:11:24.426Z,140.63
2018-03-15T08:12:24.349Z,146.25
2018-03-15T08:13:24.271Z,146.25
2018-03-15T08:14:24.174Z,140.63
2018-03-15T08:15:24.091Z,146.25
2018-03-15T08:16:24.008Z,146.25
2018-03-15T08:17:23.926Z,146.25
2018-03-15T08:18:23.841Z,146.25
2018-03-15T08:19:23.766Z,146.25
2018-03-15T08:20:23.678Z,146.25
2018-03-15T08:21:23.601Z,146.25
2018-03-15T08:22:23.627Z,151.88
2018-03-15T08:23:23.424Z,146.25
2018-03-15T08:24:23.341Z,146.25
2018-03-15T08:25:23.263Z,146.25
2018-03-15T08:26:23.176Z,146.25
2018-03-15T08:27:23.091Z,146.25
2018-03-15T08:28:23.008Z,146.25
2018-03-15T08:29:22.927Z,151.88
2018-03-15T08:30:22.843Z,151.88
2018-03-15T08:31:22.760Z,151.88
2018-03-15T08:32:22.679Z,151.88
2018-03-15T08:33:22.604Z,151.88
2018-03-15T08:34:22.508Z,151.88
2018-03-15T08:35:22.426Z,151.88
2018-03-15T08:36:22.346Z,151.88
2018-03-15T08:37:22.262Z,151.88
2018-03-15T08:38:22.178Z,151.88
2018-03-15T08:39:22.097Z,157.50
2018-03-15T08:40:22.017Z,157.50
2018-03-15T08:41:21.929Z,157.50
2018-03-15T08:42:21.847Z,157.50
2018-03-15T08:43:21.794Z,157.50
2018-03-15T08:44:21.683Z,157.50
2018-03-15T08:45:21.599Z,157.50
2018-03-15T08:46:21.514Z,163.13
2018-03-15T08:47:21.432Z,163.13
2018-03-15T08:48:21.349Z,163.13
2018-03-15T08:49:21.272Z,163.13
2018-03-15T08:50:21.185Z,163.13
2018-03-15T08:51:21.100Z,168.75
2018-03-15T08:52:21.068Z,168.75
2018-03-15T08:53:20.939Z,174.38
2018-03-15T08:54:20.853Z,174.38
2018-03-15T08:55:20.771Z,174.38
2018-03-15T08:56:20.689Z,180.00
2018-03-15T08:57:20.649Z,180.00
2018-03-15T08:58:20.523Z,180.00
2018-03-15T08:59:20.440Z,180.00
2018-03-15T09:00:20.358Z,185.63
2018-03-15T09:01:20.277Z,185.63
2018-03-15T09:02:20.192Z,185.63
2018-03-15T09:03:20.112Z,185.63
2018-03-15T09:04:20.061Z,185.63
2018-03-15T09:05:19.945Z,191.25
2018-03-15T09:06:19.866Z,191.25
2018-03-15T09:07:19.781Z,191.25
2018-03-15T09:08:19.700Z,196.88
2018-03-15T09:09:19.664Z,196.88
2018-03-15T09:10:19.534Z,196.88
2018-03-15T09:11:19.453Z,202.50
2018-03-15T09:12:19.372Z,202.50
2018-03-15T09:13:19.297Z,208.13
2018-03-15T09:14:19.204Z,202.50
2018-03-15T09:15:19.123Z,208.13
2018-03-15T09:16:19.041Z,208.13
2018-03-15T09:17:18.962Z,213.75
2018-03-15T09:18:18.886Z,213.75
2018-03-15T09:19:18.795Z,219.38
2018-03-15T09:20:18.714Z,219.38
2018-03-15T09:21:18.633Z,225.00
2018-03-15T09:22:18.549Z,230.63
2018-03-15T09:23:18.467Z,230.63
2018-03-15T09:24:18.387Z,230.63
2018-03-15T09:25:18.309Z,236.25
2018-03-15T09:26:18.221Z,236.25
2018-03-15T09:27:18.141Z,241.88
2018-03-15T09:28:18.057Z,241.88
2018-03-15T09:29:17.976Z,247.50
2018-03-15T09:30:17.897Z,241.88
2018-03-15T09:31:17.812Z,247.50
2018-03-15T09:32:17.732Z,253.13
2018-03-15T09:33:17.670Z,258.75
2018-03-15T09:34:17.568Z,258.75
2018-03-15T09:35:17.487Z,270.00
2018-03-15T09:36:17.406Z,275.63
2018-03-15T09:37:17.329Z,286.88
2018-03-15T09:38:17.242Z,292.50
2018-03-15T09:39:17.163Z,292.50
2018-03-15T09:40:17.080Z,298.13
2018-03-15T09:41:17.001Z,303.75
2018-03-15T09:42:16.917Z,315.00
2018-03-15T09:43:16.834Z,315.00
2018-03-15T09:44:16.758Z,315.00
2018-03-15T09:45:16.684Z,320.63
2018-03-15T09:46:16.608Z,320.63
2018-03-15T09:47:16.512Z,331.88
2018-03-15T09:48:16.433Z,337.50
2018-03-15T09:49:16.353Z,337.50
2018-03-15T09:50:16.276Z,348.75
2018-03-15T09:51:16.223Z,360.00
2018-03-15T09:52:16.108Z,360.00
2018-03-15T09:53:16.028Z,365.63
2018-03-15T09:54:16.125Z,365.63
2018-03-15T09:55:15.922Z,365.63
2018-03-15T09:56:15.788Z,371.25
2018-03-15T09:57:15.706Z,376.88
2018-03-15T09:58:15.649Z,382.50
2018-03-15T09:59:15.553Z,388.13
2018-03-15T10:00:15.467Z,393.75
2018-03-15T10:01:15.385Z,399.38
2018-03-15T10:02:15.309Z,399.38
2018-03-15T10:03:15.230Z,410.63
2018-03-15T10:04:15.141Z,416.25
2018-03-15T10:05:15.064Z,410.63
2018-03-15T10:06:14.982Z,421.88
2018-03-15T10:07:14.905Z,416.25
2018-03-15T10:08:14.824Z,416.25
2018-03-15T10:09:14.760Z,410.63
2018-03-15T10:10:14.662Z,405.00
2018-03-15T10:11:14.585Z,410.63
2018-03-15T10:12:14.508Z,405.00
2018-03-15T10:13:14.431Z,399.38
2018-03-15T10:14:14.343Z,399.38
2018-03-15T10:15:14.271Z,393.75
2018-03-15T10:16:14.185Z,393.75
2018-03-15T10:17:14.107Z,393.75
2018-03-15T10:18:14.039Z,388.13
2018-03-15T10:19:13.946Z,393.75
2018-03-15T10:20:13.867Z,399.38
2018-03-15T10:21:13.788Z,410.63
2018-03-15T10:22:13.735Z,421.88
2018-03-15T10:23:13.628Z,433.13
2018-03-15T10:24:13.552Z,444.38
2018-03-15T10:25:25.882Z,450.00
2018-03-15T10:26:13.390Z,461.25
2018-03-15T10:27:13.309Z,466.88
2018-03-15T10:28:13.231Z,472.50
2018-03-15T10:29:13.154Z,472.50
2018-03-15T10:30:13.073Z,472.50
2018-03-15T10:31:12.996Z,472.50
2018-03-15T10:32:12.915Z,478.13
2018-03-15T10:33:12.876Z,472.50
2018-03-15T10:34:12.759Z,466.88
2018-03-15T10:35:12.679Z,472.50
2018-03-15T10:36:12.601Z,483.75
2018-03-15T10:37:12.522Z,489.38
2018-03-15T10:38:12.452Z,495.00
2018-03-15T10:39:12.365Z,500.63
2018-03-15T10:40:12.285Z,506.25
2018-03-15T10:41:12.209Z,517.50
2018-03-15T10:42:12.134Z,517.50
2018-03-15T10:43:12.050Z,511.88
2018-03-15T10:44:11.979Z,523.13
2018-03-15T10:45:11.894Z,523.13
2018-03-15T10:46:11.824Z,528.75
2018-03-15T10:47:11.742Z,534.38
2018-03-15T10:48:11.658Z,540.00
2018-03-15T10:49:11.580Z,545.63
2018-03-15T10:50:11.500Z,551.25
2018-03-15T10:51:11.421Z,562.50
2018-03-15T10:52:11.348Z,562.50
2018-03-15T10:53:11.267Z,568.13
2018-03-15T10:54:11.187Z,568.13
2018-03-15T10:55:11.111Z,568.13
2018-03-15T10:56:11.033Z,568.13
2018-03-15T10:57:10.954Z,556.88
2018-03-15T10:58:10.875Z,556.88
2018-03-15T10:59:10.817Z,568.13
2018-03-15T11:00:10.721Z,573.75
2018-03-15T11:01:10.642Z,568.13
2018-03-15T11:02:10.565Z,568.13
2018-03-15T11:03:10.485Z,573.75
2018-03-15T11:04:10.415Z,579.38
2018-03-15T11:05:10.333Z,590.63
2018-03-15T11:06:10.257Z,596.25
2018-03-15T11:07:10.176Z,618.75
2018-03-15T11:08:10.099Z,613.13
2018-03-15T11:09:10.024Z,596.25
2018-03-15T11:10:09.943Z,641.25
2018-03-15T11:11:09.870Z,630.00
2018-03-15T11:12:09.805Z,613.13
2018-03-15T11:13:09.710Z,613.13
2018-03-15T11:14:09.647Z,635.63
2018-03-15T11:15:09.560Z,607.50
2018-03-15T11:16:09.494Z,596.25
2018-03-15T11:17:09.402Z,635.63
2018-03-15T11:18:09.333Z,652.50
2018-03-15T11:19:09.260Z,669.38
2018-03-15T11:20:09.172Z,680.63
2018-03-15T11:21:09.097Z,703.13
2018-03-15T11:22:09.020Z,714.38
2018-03-15T11:23:08.945Z,736.88
2018-03-15T11:24:08.865Z,742.50
2018-03-15T11:25:08.792Z,753.75
2018-03-15T11:26:08.747Z,765.00
2018-03-15T11:27:08.636Z,798.75
2018-03-15T11:28:08.560Z,860.63
2018-03-15T11:29:08.485Z,1113.75
2018-03-15T11:30:08.425Z,2148.75
2018-03-15T11:31:08.336Z,3099.38
2018-03-15T11:32:08.259Z,3363.75
2018-03-15T11:33:08.186Z,3183.75
2018-03-15T11:34:08.114Z,3009.38
2018-03-15T11:35:08.036Z,2986.88
2018-03-15T11:36:07.962Z,3166.88
2018-03-15T11:37:07.889Z,2475.00
2018-03-15T11:38:07.812Z,2041.88
2018-03-15T11:39:07.743Z,2289.38
2018-03-15T11:40:07.671Z,2840.63
2018-03-15T11:41:07.601Z,2998.13
2018-03-15T11:42:07.531Z,2649.38
2018-03-15T11:43:07.455Z,2649.38
2018-03-15T11:44:07.387Z,2688.75
2018-03-15T11:45:07.313Z,2806.88
2018-03-15T11:46:07.251Z,2998.13
2018-03-15T11:47:07.173Z,3155.63
2018-03-15T11:48:07.106Z,3161.25
2018-03-15T11:49:07.036Z,3436.88
2018-03-15T11:50:06.973Z,3813.75
2018-03-15T11:51:06.897Z,3510.00
2018-03-15T11:52:06.830Z,3403.13
2018-03-15T11:53:06.770Z,2880.00
2018-03-15T11:54:06.702Z,2655.00
2018-03-15T11:55:06.626Z,3768.75
2018-03-15T11:56:06.560Z,3948.75
2018-03-15T11:57:06.495Z,3543.75
2018-03-15T11:58:06.424Z,3015.00
2018-03-15T11:59:06.366Z,2750.63
2018-03-15T12:00:06.297Z,3352.50
2018-03-15T12:01:06.229Z,3780.00
2018-03-15T12:02:06.164Z,3442.50
2018-03-15T12:03:06.094Z,3600.00
2018-03-15T12:04:06.031Z,3397.50
2018-03-15T12:05:05.973Z,3296.25
2018-03-15T12:06:05.901Z,2773.13
2018-03-15T12:07:05.846Z,3273.75
2018-03-15T12:08:05.770Z,3594.38
2018-03-15T12:09:05.707Z,3543.75
2018-03-15T12:10:05.653Z,3178.13
2018-03-15T12:11:05.580Z,3301.88
2018-03-15T12:12:05.514Z,3712.50
2018-03-15T12:13:05.450Z,2964.38
2018-03-15T12:14:05.385Z,2863.13
2018-03-15T12:15:05.323Z,2930.63
2018-03-15T12:16:05.258Z,2514.38
2018-03-15T12:17:05.199Z,2013.75
2018-03-15T12:18:05.256Z,2092.50
2018-03-15T12:19:05.067Z,1665.00
2018-03-15T12:20:05.003Z,3234.38
2018-03-15T12:21:04.941Z,3026.25
2018-03-15T12:22:04.875Z,3150.00
2018-03-15T12:23:04.811Z,3808.13
2018-03-15T12:24:04.747Z,4359.38
2018-03-15T12:25:04.685Z,4488.75
2018-03-15T12:26:04.622Z,3684.38
2018-03-15T12:27:04.555Z,3403.13
2018-03-15T12:28:04.496Z,4168.13
2018-03-15T12:29:04.428Z,4702.50
2018-03-15T12:30:04.365Z,4651.88
2018-03-15T12:31:04.303Z,3830.63
2018-03-15T12:32:04.240Z,4123.13
2018-03-15T12:33:04.177Z,4156.88
2018-03-15T12:34:04.116Z,3999.38
2018-03-15T12:35:04.054Z,4106.25
2018-03-15T12:36:03.993Z,3622.50
2018-03-15T12:37:03.930Z,3150.00
2018-03-15T12:38:03.872Z,3386.25
2018-03-15T12:39:03.808Z,4179.38
2018-03-15T12:40:03.755Z,4010.63
2018-03-15T12:41:03.687Z,4516.88
2018-03-15T12:42:04.538Z,4618.13
2018-03-15T12:43:03.575Z,4758.75
2018-03-15T12:44:03.505Z,4865.63
2018-03-15T12:45:03.448Z,4820.63
2018-03-15T12:46:03.389Z,4916.25
2018-03-15T12:47:03.325Z,4854.38
2018-03-15T12:48:03.276Z,4820.63
2018-03-15T12:49:03.217Z,4921.88